createdAt,value
2018-05-17T00:00:35.408Z,46.53
2018-05-17T00:01:35.367Z,46.25
2018-05-17T00:02:35.330Z,46.53
2018-05-17T00:03:35.292Z,46.53
2018-05-17T00:04:35.246Z,46.34
2018-05-17T00:05:35.205Z,46.34
2018-05-17T00:06:35.166Z,46.44
2018-05-17T00:07:35.127Z,46.53
2018-05-17T00:08:35.083Z,46.53
2018-05-17T00:09:35.044Z,46.34
2018-05-17T00:10:35.003Z,46.53
2018-05-17T00:11:34.963Z,46.53
2018-05-17T00:12:34.921Z,46.34
2018-05-17T00:13:34.881Z,46.34
2018-05-17T00:14:34.841Z,46.53
2018-05-17T00:15:34.801Z,46.44
2018-05-17T00:16:34.760Z,46.53
2018-05-17T00:17:34.719Z,46.53
2018-05-17T00:18:34.679Z,46.53
2018-05-17T00:19:34.639Z,46.44
2018-05-17T00:20:34.597Z,46.44
2018-05-17T00:21:34.557Z,46.44
2018-05-17T00:22:34.517Z,46.53
2018-05-17T00:23:34.477Z,46.44
2018-05-17T00:24:34.436Z,46.44
2018-05-17T00:25:34.395Z,46.53
2018-05-17T00:26:34.357Z,46.53
2018-05-17T00:27:34.320Z,46.34
2018-05-17T00:28:34.273Z,46.53
2018-05-17T00:29:34.233Z,46.53
2018-05-17T00:30:34.193Z,46.44
2018-05-17T00:31:34.152Z,46.44
2018-05-17T00:32:34.111Z,46.53
2018-05-17T00:33:34.072Z,46.53
2018-05-17T00:34:34.033Z,46.53
2018-05-17T00:35:33.991Z,46.44
2018-05-17T00:36:33.949Z,46.53
2018-05-17T00:37:33.909Z,46.44
2018-05-17T00:38:33.868Z,46.44
2018-05-17T00:39:33.828Z,46.44
2018-05-17T00:40:33.787Z,46.53
2018-05-17T00:41:33.750Z,46.44
2018-05-17T00:42:33.708Z,46.53
2018-05-17T00:43:33.666Z,46.44
2018-05-17T00:44:33.625Z,46.44
2018-05-17T00:45:33.585Z,46.63
2018-05-17T00:46:33.548Z,46.42
2018-05-17T00:47:33.504Z,46.34
2018-05-17T00:48:33.463Z,46.63
2018-05-17T00:49:33.422Z,46.63
2018-05-17T00:50:33.382Z,46.70
2018-05-17T00:51:33.342Z,46.73
2018-05-17T00:52:33.350Z,46.70
2018-05-17T00:53:33.260Z,46.51
2018-05-17T00:54:33.220Z,46.42
2018-05-17T00:55:33.179Z,46.53
2018-05-17T00:56:33.141Z,46.80
2018-05-17T00:57:33.098Z,46.73
2018-05-17T00:58:33.057Z,46.53
2018-05-17T00:59:33.017Z,46.44
2018-05-17T01:00:32.976Z,46.70
2018-05-17T01:01:32.936Z,46.61
2018-05-17T01:02:32.895Z,46.53
2018-05-17T01:03:32.855Z,46.53
2018-05-17T01:04:32.817Z,46.90
2018-05-17T01:05:32.772Z,46.63
2018-05-17T01:06:32.733Z,46.61
2018-05-17T01:07:32.692Z,46.63
2018-05-17T01:08:32.651Z,46.83
2018-05-17T01:09:32.610Z,46.70
2018-05-17T01:10:32.570Z,46.63
2018-05-17T01:11:32.530Z,46.90
2018-05-17T01:12:32.489Z,46.70
2018-05-17T01:13:32.498Z,46.80
2018-05-17T01:14:32.408Z,46.70
2018-05-17T01:15:32.367Z,46.80
2018-05-17T01:16:32.326Z,46.32
2018-05-17T01:17:32.285Z,46.42
2018-05-17T01:18:32.250Z,46.80
2018-05-17T01:19:32.205Z,46.51
2018-05-17T01:20:32.163Z,46.61
2018-05-17T01:21:32.125Z,46.61
2018-05-17T01:22:32.082Z,46.51
2018-05-17T01:23:32.042Z,46.51
2018-05-17T01:24:32.001Z,46.32
2018-05-17T01:25:31.960Z,46.61
2018-05-17T01:26:31.920Z,46.70
2018-05-17T01:27:31.879Z,46.70
2018-05-17T01:28:31.838Z,46.61
2018-05-17T01:29:31.798Z,46.61
2018-05-17T01:30:31.758Z,46.80
2018-05-17T01:31:31.717Z,46.80
2018-05-17T01:32:31.725Z,46.80
2018-05-17T01:33:31.635Z,46.61
2018-05-17T01:34:31.594Z,46.90
2018-05-17T01:35:31.553Z,46.70
2018-05-17T01:36:31.512Z,46.80
2018-05-17T01:37:31.473Z,46.70
2018-05-17T01:38:31.436Z,46.51
2018-05-17T01:39:31.391Z,46.51
2018-05-17T01:40:31.350Z,46.51
2018-05-17T01:41:31.315Z,46.70
2018-05-17T01:42:31.269Z,46.61
2018-05-17T01:43:31.279Z,46.51
2018-05-17T01:44:31.187Z,46.70
2018-05-17T01:45:31.149Z,46.61
2018-05-17T01:46:31.107Z,46.51
2018-05-17T01:47:31.066Z,46.61
2018-05-17T01:48:31.025Z,46.61
2018-05-17T01:49:30.984Z,46.61
2018-05-17T01:50:30.943Z,46.51
2018-05-17T01:51:30.903Z,46.61
2018-05-17T01:52:30.861Z,46.80
2018-05-17T01:53:30.820Z,46.61
2018-05-17T01:54:30.781Z,46.80
2018-05-17T01:55:30.740Z,46.80
2018-05-17T01:56:30.698Z,46.80
2018-05-17T01:57:30.658Z,46.90
2018-05-17T01:58:30.617Z,46.70
2018-05-17T01:59:30.577Z,46.90
2018-05-17T02:00:30.539Z,46.80
2018-05-17T02:01:30.495Z,46.70
2018-05-17T02:02:30.458Z,46.90
2018-05-17T02:03:30.415Z,47.00
2018-05-17T02:04:30.372Z,46.90
2018-05-17T02:05:30.332Z,46.80
2018-05-17T02:06:30.291Z,47.00
2018-05-17T02:07:30.251Z,46.90
2018-05-17T02:08:30.209Z,47.00
2018-05-17T02:09:30.169Z,47.00
2018-05-17T02:10:30.128Z,46.80
2018-05-17T02:11:30.089Z,46.80
2018-05-17T02:12:30.047Z,46.90
2018-05-17T02:13:30.006Z,46.90
2018-05-17T02:14:29.967Z,46.70
2018-05-17T02:15:29.925Z,46.90
2018-05-17T02:16:29.883Z,46.80
2018-05-17T02:17:29.843Z,46.80
2018-05-17T02:18:29.803Z,46.80
2018-05-17T02:19:29.762Z,46.80
2018-05-17T02:20:29.719Z,46.80
2018-05-17T02:21:29.711Z,46.90
2018-05-17T02:22:29.640Z,46.80
2018-05-17T02:23:29.598Z,46.70
2018-05-17T02:24:29.557Z,46.90
2018-05-17T02:25:29.517Z,46.70
2018-05-17T02:26:29.476Z,46.70
2018-05-17T02:27:29.437Z,46.70
2018-05-17T02:28:29.394Z,47.09
2018-05-17T02:29:29.354Z,47.19
2018-05-17T02:30:29.313Z,47.00
2018-05-17T02:31:29.282Z,47.00
2018-05-17T02:32:29.232Z,47.00
2018-05-17T02:33:29.191Z,47.00
2018-05-17T02:34:29.150Z,47.09
2018-05-17T02:35:29.109Z,47.00
2018-05-17T02:36:29.069Z,47.00
2018-05-17T02:37:29.029Z,47.09
2018-05-17T02:38:28.987Z,47.00
2018-05-17T02:39:28.946Z,46.90
2018-05-17T02:40:28.906Z,47.00
2018-05-17T02:41:28.864Z,46.90
2018-05-17T02:42:28.824Z,47.00
2018-05-17T02:43:28.783Z,46.80
2018-05-17T02:44:28.742Z,47.00
2018-05-17T02:45:28.706Z,46.90
2018-05-17T02:46:28.660Z,46.90
2018-05-17T02:47:28.620Z,46.90
2018-05-17T02:48:28.579Z,47.00
2018-05-17T02:49:28.538Z,47.00
2018-05-17T02:50:28.498Z,46.80
2018-05-17T02:51:28.457Z,46.90
2018-05-17T02:52:28.415Z,46.90
2018-05-17T02:53:28.380Z,47.09
2018-05-17T02:54:28.334Z,47.09
2018-05-17T02:55:28.297Z,46.90
2018-05-17T02:56:28.252Z,46.90
2018-05-17T02:57:28.212Z,47.00
2018-05-17T02:58:28.171Z,46.80
2018-05-17T02:59:28.137Z,46.90
2018-05-17T03:00:28.091Z,46.90
2018-05-17T03:01:28.049Z,47.00
2018-05-17T03:02:28.025Z,47.00
2018-05-17T03:03:27.969Z,47.09
2018-05-17T03:04:27.926Z,47.00
2018-05-17T03:05:27.885Z,47.00
2018-05-17T03:06:27.844Z,46.90
2018-05-17T03:07:27.803Z,47.09
2018-05-17T03:08:27.762Z,47.09
2018-05-17T03:09:27.722Z,47.19
2018-05-17T03:10:27.681Z,46.90
2018-05-17T03:11:27.640Z,47.09
2018-05-17T03:12:27.599Z,47.00
2018-05-17T03:13:27.557Z,46.90
2018-05-17T03:14:27.517Z,47.09
2018-05-17T03:15:27.476Z,47.19
2018-05-17T03:16:27.435Z,47.19
2018-05-17T03:17:27.398Z,47.09
2018-05-17T03:18:27.353Z,47.19
2018-05-17T03:19:27.312Z,47.00
2018-05-17T03:20:27.274Z,47.00
2018-05-17T03:21:27.230Z,47.00
2018-05-17T03:22:27.190Z,47.09
2018-05-17T03:23:27.150Z,47.19
2018-05-17T03:24:27.108Z,47.00
2018-05-17T03:25:27.068Z,47.00
2018-05-17T03:26:27.027Z,47.38
2018-05-17T03:27:26.985Z,47.09
2018-05-17T03:28:26.948Z,47.00
2018-05-17T03:29:26.903Z,47.19
2018-05-17T03:30:26.863Z,47.38
2018-05-17T03:31:26.824Z,47.48
2018-05-17T03:32:26.780Z,47.09
2018-05-17T03:33:26.743Z,47.09
2018-05-17T03:34:26.699Z,47.09
2018-05-17T03:35:26.658Z,46.90
2018-05-17T03:36:26.620Z,47.19
2018-05-17T03:37:26.576Z,47.48
2018-05-17T03:38:26.536Z,47.38
2018-05-17T03:39:26.495Z,47.48
2018-05-17T03:40:26.453Z,47.48
2018-05-17T03:41:26.413Z,47.48
2018-05-17T03:42:26.372Z,46.90
2018-05-17T03:43:26.384Z,47.19
2018-05-17T03:44:26.290Z,47.38
2018-05-17T03:45:26.249Z,47.19
2018-05-17T03:46:26.208Z,46.90
2018-05-17T03:47:26.167Z,47.38
2018-05-17T03:48:26.126Z,47.19
2018-05-17T03:49:26.085Z,47.19
2018-05-17T03:50:26.045Z,47.38
2018-05-17T03:51:26.004Z,47.19
2018-05-17T03:52:26.013Z,47.38
2018-05-17T03:53:25.922Z,47.19
2018-05-17T03:54:25.881Z,47.09
2018-05-17T03:55:25.843Z,47.28
2018-05-17T03:56:25.799Z,47.28
2018-05-17T03:57:25.761Z,47.19
2018-05-17T03:58:25.717Z,47.00
2018-05-17T03:59:25.676Z,47.28
2018-05-17T04:00:25.639Z,47.28
2018-05-17T04:01:25.653Z,47.00
2018-05-17T04:02:25.554Z,47.38
2018-05-17T04:03:25.513Z,47.28
2018-05-17T04:04:25.475Z,47.38
2018-05-17T04:05:25.431Z,47.38
2018-05-17T04:06:25.390Z,47.38
2018-05-17T04:07:25.349Z,47.19
2018-05-17T04:08:25.308Z,47.09
2018-05-17T04:09:25.271Z,47.28
2018-05-17T04:10:25.226Z,47.19
2018-05-17T04:11:25.286Z,47.09
2018-05-17T04:12:25.145Z,47.38
2018-05-17T04:13:25.103Z,47.09
2018-05-17T04:14:25.087Z,47.19
2018-05-17T04:15:25.022Z,46.90
2018-05-17T04:16:24.980Z,47.09
2018-05-17T04:17:24.939Z,46.90
2018-05-17T04:18:24.899Z,47.00
2018-05-17T04:19:24.858Z,47.19
2018-05-17T04:20:24.817Z,47.09
2018-05-17T04:21:24.776Z,47.09
2018-05-17T04:22:24.735Z,47.09
2018-05-17T04:23:24.694Z,47.19
2018-05-17T04:24:24.656Z,46.90
2018-05-17T04:25:24.635Z,47.00
2018-05-17T04:26:24.571Z,47.00
2018-05-17T04:27:24.530Z,46.90
2018-05-17T04:28:24.489Z,47.09
2018-05-17T04:29:24.453Z,47.09
2018-05-17T04:30:24.407Z,47.00
2018-05-17T04:31:24.366Z,46.90
2018-05-17T04:32:24.325Z,47.09
2018-05-17T04:33:24.286Z,46.90
2018-05-17T04:34:24.243Z,47.00
2018-05-17T04:35:24.203Z,46.70
2018-05-17T04:36:24.161Z,46.90
2018-05-17T04:37:24.121Z,46.80
2018-05-17T04:38:24.080Z,46.90
2018-05-17T04:39:24.041Z,47.00
2018-05-17T04:40:24.001Z,46.90
2018-05-17T04:41:23.956Z,46.80
2018-05-17T04:42:23.916Z,46.63
2018-05-17T04:43:23.875Z,46.61
2018-05-17T04:44:23.833Z,46.73
2018-05-17T04:45:23.793Z,46.83
2018-05-17T04:46:23.753Z,46.73
2018-05-17T04:47:23.711Z,46.83
2018-05-17T04:48:23.669Z,46.44
2018-05-17T04:49:23.628Z,46.53
2018-05-17T04:50:23.695Z,46.44
2018-05-17T04:51:23.547Z,46.25
2018-05-17T04:52:23.508Z,46.25
2018-05-17T04:53:23.464Z,46.05
2018-05-17T04:54:23.423Z,46.15
2018-05-17T04:55:23.383Z,46.05
2018-05-17T04:56:23.341Z,45.88
2018-05-17T04:57:23.301Z,45.59
2018-05-17T04:58:23.260Z,45.59
2018-05-17T04:59:23.219Z,45.59
2018-05-17T05:00:23.177Z,45.40
2018-05-17T05:01:23.137Z,45.10
2018-05-17T05:02:23.097Z,45.30
2018-05-17T05:03:23.056Z,45.01
2018-05-17T05:04:23.014Z,45.03
2018-05-17T05:05:22.973Z,44.84
2018-05-17T05:06:22.933Z,44.16
2018-05-17T05:07:22.892Z,44.74
2018-05-17T05:08:22.850Z,45.05
2018-05-17T05:09:22.862Z,44.27
2018-05-17T05:10:22.769Z,44.18
2018-05-17T05:11:22.728Z,45.05
2018-05-17T05:12:22.687Z,44.57
2018-05-17T05:13:22.646Z,44.67
2018-05-17T05:14:22.605Z,44.47
2018-05-17T05:15:22.565Z,43.62
2018-05-17T05:16:22.523Z,43.72
2018-05-17T05:17:22.482Z,43.52
2018-05-17T05:18:22.442Z,43.43
2018-05-17T05:19:22.402Z,43.52
2018-05-17T05:20:22.360Z,43.72
2018-05-17T05:21:22.319Z,43.82
2018-05-17T05:22:22.279Z,43.82
2018-05-17T05:23:22.242Z,43.43
2018-05-17T05:24:22.199Z,43.23
2018-05-17T05:25:22.212Z,43.13
2018-05-17T05:26:22.116Z,43.04
2018-05-17T05:27:22.075Z,43.16
2018-05-17T05:28:22.042Z,43.16
2018-05-17T05:29:21.994Z,43.16
2018-05-17T05:30:21.956Z,43.13
2018-05-17T05:31:21.913Z,43.13
2018-05-17T05:32:21.871Z,43.33
2018-05-17T05:33:21.831Z,44.01
2018-05-17T05:34:21.791Z,44.01
2018-05-17T05:35:21.750Z,43.91
2018-05-17T05:36:21.710Z,43.43
2018-05-17T05:37:21.669Z,43.13
2018-05-17T05:38:21.628Z,43.13
2018-05-17T05:39:21.588Z,42.86
2018-05-17T05:40:21.547Z,42.48
2018-05-17T05:41:21.556Z,42.48
2018-05-17T05:42:21.466Z,42.77
2018-05-17T05:43:21.498Z,42.40
2018-05-17T05:44:21.384Z,42.02
2018-05-17T05:45:21.344Z,41.92
2018-05-17T05:46:21.303Z,41.82
2018-05-17T05:47:21.264Z,41.24
2018-05-17T05:48:21.222Z,41.53
2018-05-17T05:49:21.243Z,41.55
2018-05-17T05:50:21.141Z,41.26
2018-05-17T05:51:21.100Z,41.26
2018-05-17T05:52:21.060Z,40.77
2018-05-17T05:53:21.021Z,40.58
2018-05-17T05:54:20.978Z,40.41
2018-05-17T05:55:20.939Z,40.01
2018-05-17T05:56:20.898Z,40.01
2018-05-17T05:57:20.858Z,39.84
2018-05-17T05:58:20.817Z,39.45
2018-05-17T05:59:20.777Z,39.36
2018-05-17T06:00:20.740Z,38.98
2018-05-17T06:01:20.695Z,38.98
2018-05-17T06:02:20.661Z,38.89
2018-05-17T06:03:20.615Z,38.60
2018-05-17T06:04:20.575Z,38.32
2018-05-17T06:05:20.535Z,37.84
2018-05-17T06:06:20.495Z,38.03
2018-05-17T06:07:20.455Z,37.64
2018-05-17T06:08:20.485Z,37.56
2018-05-17T06:09:20.376Z,37.66
2018-05-17T06:10:20.334Z,37.66
2018-05-17T06:11:20.294Z,37.08
2018-05-17T06:12:20.253Z,37.08
2018-05-17T06:13:20.214Z,36.96
2018-05-17T06:14:20.173Z,36.87
2018-05-17T06:15:20.133Z,36.87
2018-05-17T06:16:20.093Z,36.87
2018-05-17T06:17:20.097Z,37.16
2018-05-17T06:18:20.014Z,36.96
2018-05-17T06:19:19.972Z,36.96
2018-05-17T06:20:19.933Z,37.06
2018-05-17T06:21:19.893Z,37.06
2018-05-17T06:22:19.853Z,36.65
2018-05-17T06:23:19.812Z,36.67
2018-05-17T06:24:19.773Z,36.57
2018-05-17T06:25:19.733Z,36.87
2018-05-17T06:26:19.693Z,36.77
2018-05-17T06:27:19.654Z,36.47
2018-05-17T06:28:19.613Z,36.77
2018-05-17T06:29:19.572Z,36.49
2018-05-17T06:30:19.622Z,36.18
2018-05-17T06:31:19.493Z,36.20
2018-05-17T06:32:19.453Z,35.91
2018-05-17T06:33:19.467Z,35.71
2018-05-17T06:34:19.373Z,35.33
2018-05-17T06:35:19.334Z,35.42
2018-05-17T06:36:19.293Z,35.44
2018-05-17T06:37:19.253Z,35.44
2018-05-17T06:38:19.213Z,35.53
2018-05-17T06:39:19.174Z,35.53
2018-05-17T06:40:19.132Z,35.36
2018-05-17T06:41:19.093Z,35.16
2018-05-17T06:42:19.054Z,35.16
2018-05-17T06:43:19.015Z,35.06
2018-05-17T06:44:18.973Z,35.16
2018-05-17T06:45:18.936Z,35.08
2018-05-17T06:46:18.895Z,35.08
2018-05-17T06:47:18.859Z,34.79
2018-05-17T06:48:18.833Z,34.59
2018-05-17T06:49:18.775Z,34.79
2018-05-17T06:50:18.751Z,34.79
2018-05-17T06:51:18.696Z,34.59
2018-05-17T06:52:18.656Z,34.79
2018-05-17T06:53:18.617Z,34.97
2018-05-17T06:54:18.577Z,35.06
2018-05-17T06:55:18.537Z,35.06
2018-05-17T06:56:18.497Z,35.06
2018-05-17T06:57:18.508Z,35.06
2018-05-17T06:58:18.417Z,34.97
2018-05-17T06:59:18.379Z,35.06
2018-05-17T07:00:18.337Z,34.88
2018-05-17T07:01:18.336Z,35.06
2018-05-17T07:02:18.262Z,34.68
2018-05-17T07:03:18.221Z,34.50
2018-05-17T07:04:18.180Z,34.21
2018-05-17T07:05:18.141Z,33.83
2018-05-17T07:06:18.103Z,33.44
2018-05-17T07:07:18.063Z,33.26
2018-05-17T07:08:18.023Z,33.17
2018-05-17T07:09:17.984Z,32.70
2018-05-17T07:10:17.944Z,32.50
2018-05-17T07:11:17.905Z,32.60
2018-05-17T07:12:17.873Z,32.31
2018-05-17T07:13:17.826Z,32.31
2018-05-17T07:14:17.788Z,32.13
2018-05-17T07:15:17.799Z,32.13
2018-05-17T07:16:17.710Z,32.23
2018-05-17T07:17:17.673Z,32.23
2018-05-17T07:18:17.720Z,32.03
2018-05-17T07:19:17.593Z,31.84
2018-05-17T07:20:17.554Z,31.85
2018-05-17T07:21:17.517Z,31.85
2018-05-17T07:22:17.476Z,31.56
2018-05-17T07:23:17.441Z,31.56
2018-05-17T07:24:17.400Z,31.46
2018-05-17T07:25:17.360Z,31.16
2018-05-17T07:26:17.324Z,31.57
2018-05-17T07:27:17.283Z,31.87
2018-05-17T07:28:17.244Z,30.98
2018-05-17T07:29:17.206Z,31.18
2018-05-17T07:30:17.169Z,31.28
2018-05-17T07:31:17.146Z,31.18
2018-05-17T07:32:17.091Z,31.29
2018-05-17T07:33:17.053Z,31.49
2018-05-17T07:34:17.024Z,31.10
2018-05-17T07:35:16.978Z,31.20
2018-05-17T07:36:16.938Z,31.29
2018-05-17T07:37:16.901Z,31.29
2018-05-17T07:38:16.861Z,31.39
2018-05-17T07:39:16.854Z,31.39
2018-05-17T07:40:16.786Z,31.59
2018-05-17T07:41:16.750Z,31.20
2018-05-17T07:42:16.711Z,31.00
2018-05-17T07:43:16.673Z,31.00
2018-05-17T07:44:16.633Z,31.29
2018-05-17T07:45:16.597Z,31.57
2018-05-17T07:46:16.563Z,31.38
2018-05-17T07:47:16.598Z,31.48
2018-05-17T07:48:16.484Z,31.28
2018-05-17T07:49:16.446Z,31.38
2018-05-17T07:50:16.408Z,31.77
2018-05-17T07:51:16.370Z,31.28
2018-05-17T07:52:16.332Z,30.90
2018-05-17T07:53:16.396Z,31.00
2018-05-17T07:54:16.257Z,30.71
2018-05-17T07:55:16.223Z,30.32
2018-05-17T07:56:16.183Z,30.61
2018-05-17T07:57:16.151Z,30.62
2018-05-17T07:58:16.108Z,30.04
2018-05-17T07:59:16.071Z,30.35
2018-05-17T08:00:16.036Z,29.85
2018-05-17T08:01:15.996Z,29.27
2018-05-17T08:02:15.959Z,29.36
2018-05-17T08:03:15.922Z,30.13
2018-05-17T08:04:15.885Z,30.32
2018-05-17T08:05:15.848Z,30.10
2018-05-17T08:06:15.813Z,30.88
2018-05-17T08:07:15.774Z,31.07
2018-05-17T08:08:15.736Z,31.36
2018-05-17T08:09:15.704Z,31.56
2018-05-17T08:10:15.663Z,31.56
2018-05-17T08:11:15.627Z,30.97
2018-05-17T08:12:15.589Z,31.36
2018-05-17T08:13:15.551Z,31.16
2018-05-17T08:14:15.515Z,31.26
2018-05-17T08:15:15.478Z,31.65
2018-05-17T08:16:15.440Z,31.46
2018-05-17T08:17:15.403Z,31.45
2018-05-17T08:18:15.367Z,31.93
2018-05-17T08:19:15.330Z,32.23
2018-05-17T08:20:15.292Z,31.38
2018-05-17T08:21:15.255Z,31.20
2018-05-17T08:22:15.220Z,31.00
2018-05-17T08:23:15.182Z,31.48
2018-05-17T08:24:15.145Z,31.16
2018-05-17T08:25:15.108Z,32.42
2018-05-17T08:26:15.072Z,32.79
2018-05-17T08:27:15.036Z,32.97
2018-05-17T08:28:14.999Z,33.65
2018-05-17T08:29:14.962Z,33.26
2018-05-17T08:30:14.927Z,33.56
2018-05-17T08:31:14.890Z,33.46
2018-05-17T08:32:14.853Z,33.26
2018-05-17T08:33:14.817Z,32.97
2018-05-17T08:34:14.782Z,33.07
2018-05-17T08:35:14.746Z,33.07
2018-05-17T08:36:14.946Z,32.99
2018-05-17T08:37:14.674Z,33.28
2018-05-17T08:38:14.637Z,33.07
2018-05-17T08:39:14.604Z,33.26
2018-05-17T08:40:14.568Z,33.07
2018-05-17T08:41:14.532Z,32.87
2018-05-17T08:42:14.496Z,32.97
2018-05-17T08:43:14.463Z,32.97
2018-05-17T08:44:14.426Z,33.26
2018-05-17T08:45:14.392Z,33.18
2018-05-17T08:46:14.386Z,33.18
2018-05-17T08:47:14.321Z,33.18
2018-05-17T08:48:14.285Z,33.65
2018-05-17T08:49:14.251Z,34.03
2018-05-17T08:50:14.215Z,34.42
2018-05-17T08:51:14.185Z,34.22
2018-05-17T08:52:14.145Z,33.93
2018-05-17T08:53:14.110Z,33.95
2018-05-17T08:54:14.076Z,33.75
2018-05-17T08:55:14.041Z,34.12
2018-05-17T08:56:14.005Z,35.18
2018-05-17T08:57:13.969Z,35.36
2018-05-17T08:58:13.935Z,35.34
2018-05-17T08:59:13.900Z,36.32
2018-05-17T09:00:13.863Z,36.69
2018-05-17T09:01:13.828Z,36.59
2018-05-17T09:02:13.792Z,37.06
2018-05-17T09:03:13.760Z,37.35
2018-05-17T09:04:13.720Z,37.54
2018-05-17T09:05:13.687Z,37.35
2018-05-17T09:06:13.733Z,37.08
2018-05-17T09:07:13.613Z,36.98
2018-05-17T09:08:13.575Z,37.08
2018-05-17T09:09:13.540Z,36.98
2018-05-17T09:10:13.504Z,37.37
2018-05-17T09:11:13.469Z,37.26
2018-05-17T09:12:13.432Z,37.84
2018-05-17T09:13:13.396Z,37.74
2018-05-17T09:14:13.361Z,37.93
2018-05-17T09:15:13.324Z,38.31
2018-05-17T09:16:13.287Z,38.60
2018-05-17T09:17:13.269Z,38.79
2018-05-17T09:18:13.217Z,38.79
2018-05-17T09:19:13.185Z,38.87
2018-05-17T09:20:13.161Z,38.96
2018-05-17T09:21:13.110Z,39.06
2018-05-17T09:22:13.073Z,39.36
2018-05-17T09:23:13.036Z,39.55
2018-05-17T09:24:13.000Z,39.65
2018-05-17T09:25:12.964Z,39.75
2018-05-17T09:26:12.928Z,39.94
2018-05-17T09:27:12.892Z,39.82
2018-05-17T09:28:12.859Z,40.13
2018-05-17T09:29:12.826Z,40.21
2018-05-17T09:30:12.784Z,40.11
2018-05-17T09:31:12.748Z,40.11
2018-05-17T09:32:12.787Z,40.11
2018-05-17T09:33:12.675Z,40.01
2018-05-17T09:34:12.639Z,40.31
2018-05-17T09:35:12.602Z,40.42
2018-05-17T09:36:12.629Z,40.33
2018-05-17T09:37:12.530Z,40.21
2018-05-17T09:38:12.493Z,40.60
2018-05-17T09:39:12.457Z,40.50
2018-05-17T09:40:12.424Z,40.50
2018-05-17T09:41:12.392Z,40.50
2018-05-17T09:42:12.346Z,40.50
2018-05-17T09:43:12.310Z,40.50
2018-05-17T09:44:12.277Z,40.69
2018-05-17T09:45:12.234Z,40.41
2018-05-17T09:46:12.198Z,40.60
2018-05-17T09:47:12.161Z,40.60
2018-05-17T09:48:12.123Z,40.79
2018-05-17T09:49:12.086Z,40.79
2018-05-17T09:50:12.050Z,40.89
2018-05-17T09:51:12.016Z,40.79
2018-05-17T09:52:11.973Z,40.77
2018-05-17T09:53:11.939Z,40.58
2018-05-17T09:54:11.902Z,41.06
2018-05-17T09:55:11.862Z,40.77
2018-05-17T09:56:11.824Z,40.97
2018-05-17T09:57:11.786Z,40.87
2018-05-17T09:58:11.748Z,41.36
2018-05-17T09:59:11.715Z,41.26
2018-05-17T10:00:11.671Z,41.16
2018-05-17T10:01:11.642Z,41.16
2018-05-17T10:02:11.597Z,41.36
2018-05-17T10:03:11.559Z,41.55
2018-05-17T10:04:11.519Z,41.55
2018-05-17T10:05:11.482Z,41.55
2018-05-17T10:06:11.445Z,41.64
2018-05-17T10:07:11.407Z,41.55
2018-05-17T10:08:11.368Z,41.45
2018-05-17T10:09:11.369Z,41.64
2018-05-17T10:10:11.292Z,41.55
2018-05-17T10:11:11.266Z,41.06
2018-05-17T10:12:11.215Z,41.45
2018-05-17T10:13:11.177Z,41.45
2018-05-17T10:14:11.139Z,41.64
2018-05-17T10:15:11.101Z,41.64
2018-05-17T10:16:11.062Z,41.94
2018-05-17T10:17:11.124Z,41.64
2018-05-17T10:18:10.986Z,42.33
2018-05-17T10:19:10.947Z,42.13
2018-05-17T10:20:10.909Z,42.71
2018-05-17T10:21:10.870Z,42.52
2018-05-17T10:22:10.832Z,42.81
2018-05-17T10:23:10.805Z,42.91
2018-05-17T10:24:10.759Z,43.30
2018-05-17T10:25:10.718Z,43.30
2018-05-17T10:26:10.679Z,43.78
2018-05-17T10:27:10.642Z,43.49
2018-05-17T10:28:10.605Z,43.88
2018-05-17T10:29:10.563Z,44.56
2018-05-17T10:30:10.525Z,45.04
2018-05-17T10:31:10.486Z,44.07
2018-05-17T10:32:10.447Z,44.46
2018-05-17T10:33:10.408Z,45.04
2018-05-17T10:34:10.375Z,44.65
2018-05-17T10:35:10.332Z,44.75
2018-05-17T10:36:10.293Z,44.65
2018-05-17T10:37:10.254Z,44.65
2018-05-17T10:38:10.217Z,44.75
2018-05-17T10:39:10.178Z,44.95
2018-05-17T10:40:10.139Z,44.85
2018-05-17T10:41:10.101Z,44.75
2018-05-17T10:42:10.147Z,45.04
2018-05-17T10:43:10.023Z,45.14
2018-05-17T10:44:09.989Z,45.34
2018-05-17T10:45:09.946Z,45.43
2018-05-17T10:46:09.909Z,45.62
2018-05-17T10:47:09.885Z,46.01
2018-05-17T10:48:09.882Z,46.23
2018-05-17T10:49:09.792Z,46.31
2018-05-17T10:50:09.755Z,46.42
2018-05-17T10:51:09.715Z,46.72
2018-05-17T10:52:09.675Z,46.52
2018-05-17T10:53:09.638Z,46.81
2018-05-17T10:54:09.619Z,46.79
2018-05-17T10:55:09.578Z,46.81
2018-05-17T10:56:09.522Z,47.20
2018-05-17T10:57:09.484Z,47.11
2018-05-17T10:58:09.446Z,47.11
2018-05-17T10:59:09.406Z,47.20
2018-05-17T11:00:09.368Z,47.59
2018-05-17T11:01:09.330Z,47.49
2018-05-17T11:02:09.291Z,47.20
2018-05-17T11:03:09.253Z,47.28
2018-05-17T11:04:09.214Z,47.18
2018-05-17T11:05:09.492Z,47.28
2018-05-17T11:06:09.136Z,47.28
2018-05-17T11:07:09.099Z,47.18
2018-05-17T11:08:09.059Z,47.18
2018-05-17T11:09:09.021Z,47.08
2018-05-17T11:10:08.983Z,47.28
2018-05-17T11:11:08.944Z,47.18
2018-05-17T11:12:08.940Z,47.18
2018-05-17T11:13:08.867Z,47.86
2018-05-17T11:14:08.828Z,47.66
2018-05-17T11:15:08.799Z,47.86
2018-05-17T11:16:08.750Z,48.54
2018-05-17T11:17:08.712Z,48.64
2018-05-17T11:18:08.674Z,48.83
2018-05-17T11:19:08.635Z,48.80
2018-05-17T11:20:08.595Z,48.80
2018-05-17T11:21:08.558Z,49.10
2018-05-17T11:22:08.519Z,48.90
2018-05-17T11:23:08.479Z,49.29
2018-05-17T11:24:08.440Z,49.00
2018-05-17T11:25:08.402Z,49.19
2018-05-17T11:26:08.363Z,49.19
2018-05-17T11:27:08.325Z,49.10
2018-05-17T11:28:08.283Z,49.19
2018-05-17T11:29:08.245Z,49.39
2018-05-17T11:30:08.207Z,49.39
2018-05-17T11:31:08.169Z,49.39
2018-05-17T11:32:08.128Z,49.39
2018-05-17T11:33:08.145Z,49.58
2018-05-17T11:34:08.050Z,49.87
2018-05-17T11:35:08.023Z,50.07
2018-05-17T11:36:07.972Z,50.16
2018-05-17T11:37:07.934Z,50.16
2018-05-17T11:38:07.896Z,49.97
2018-05-17T11:39:07.857Z,50.07
2018-05-17T11:40:07.827Z,50.16
2018-05-17T11:41:07.783Z,50.16
2018-05-17T11:42:07.739Z,50.07
2018-05-17T11:43:07.700Z,49.87
2018-05-17T11:44:07.743Z,50.16
2018-05-17T11:45:07.628Z,50.07
2018-05-17T11:46:07.582Z,50.07
2018-05-17T11:47:07.547Z,50.16
2018-05-17T11:48:07.504Z,50.07
2018-05-17T11:49:07.466Z,50.07
2018-05-17T11:50:07.427Z,50.07
2018-05-17T11:51:07.387Z,50.07
2018-05-17T11:52:07.348Z,49.77
2018-05-17T11:53:07.311Z,50.16
2018-05-17T11:54:07.271Z,50.46
2018-05-17T11:55:07.232Z,50.26
2018-05-17T11:56:07.192Z,50.56
2018-05-17T11:57:07.156Z,50.46
2018-05-17T11:58:07.114Z,50.65
2018-05-17T11:59:07.080Z,50.65
2018-05-17T12:00:07.036Z,50.94
2018-05-17T12:01:06.996Z,50.65
2018-05-17T12:02:06.957Z,51.14
2018-05-17T12:03:06.919Z,51.14
2018-05-17T12:04:06.879Z,51.14
2018-05-17T12:05:06.840Z,51.91
2018-05-17T12:06:06.801Z,51.72
2018-05-17T12:07:06.761Z,51.91
2018-05-17T12:08:06.722Z,51.62
2018-05-17T12:09:06.684Z,51.62
2018-05-17T12:10:06.645Z,52.01
2018-05-17T12:11:06.606Z,51.91
2018-05-17T12:12:06.566Z,51.91
2018-05-17T12:13:06.526Z,51.91
2018-05-17T12:14:06.489Z,51.91
2018-05-17T12:15:06.450Z,51.43
2018-05-17T12:16:06.409Z,51.81
2018-05-17T12:17:06.371Z,51.91
2018-05-17T12:18:06.332Z,51.91
2018-05-17T12:19:06.293Z,52.01
2018-05-17T12:20:06.253Z,52.11
2018-05-17T12:21:06.214Z,51.81
2018-05-17T12:22:06.176Z,52.30
2018-05-17T12:23:06.320Z,52.40
2018-05-17T12:24:06.097Z,52.20
2018-05-17T12:25:06.057Z,52.72
2018-05-17T12:26:06.019Z,52.40
2018-05-17T12:27:05.981Z,52.59
2018-05-17T12:28:05.940Z,52.59
2018-05-17T12:29:05.910Z,52.78
2018-05-17T12:30:05.862Z,52.78
2018-05-17T12:31:05.823Z,52.78
2018-05-17T12:32:05.784Z,52.69
2018-05-17T12:33:05.745Z,52.88
2018-05-17T12:34:05.919Z,52.69
2018-05-17T12:35:05.666Z,52.78
2018-05-17T12:36:05.627Z,52.69
2018-05-17T12:37:05.621Z,52.88
2018-05-17T12:38:05.549Z,53.17
2018-05-17T12:39:05.510Z,52.88
2018-05-17T12:40:05.470Z,52.69
2018-05-17T12:41:05.436Z,53.17
2018-05-17T12:42:05.393Z,52.78
2018-05-17T12:43:05.354Z,52.78
2018-05-17T12:44:05.314Z,53.17
2018-05-17T12:45:05.274Z,53.17
2018-05-17T12:46:05.237Z,53.08
2018-05-17T12:47:05.201Z,52.69
2018-05-17T12:48:05.157Z,52.78
2018-05-17T12:49:05.118Z,52.59
2018-05-17T12:50:05.080Z,53.17
2018-05-17T12:51:05.041Z,53.08
2018-05-17T12:52:05.007Z,53.08